Time;durP1;ratioP1;P1;durP2;ratioP2;P2;SDS_P1;SDS_P2;PMS_P1;PMS_P2;Temp;Humidity;BMP_temperature;BMP_pressure;BME280_temperature;BME280_humidity;BME280_pressure;Samples;Min_cycle;Max_cycle;Signal;HPM_P1;HPM_P2
2021/01/05 00:01:18;;;;;;;33.08;25.45;;;;;;;1.54;94.10;100810.56;1700359;84;21837;-76
2021/01/05 00:04:23;;;;;;;42.88;36.93;;;;;;;1.57;94.10;100822.98;1700434;84;21313;-77
2021/01/05 00:07:28;;;;;;;29.00;20.92;;;;;;;1.57;94.22;100820.29;1700398;84;22164;-75
2021/01/05 00:10:34;;;;;;;34.13;27.60;;;;;;;1.54;94.27;100816.45;1700262;84;21190;-76
2021/01/05 00:13:39;;;;;;;39.88;33.92;;;;;;;1.50;94.06;100833.80;1700306;84;21265;-77
2021/01/05 00:16:45;;;;;;;45.30;40.25;;;;;;;1.42;93.84;100825.41;1699955;84;21226;-76
2021/01/05 00:19:52;;;;;;;66.92;57.40;;;;;;;1.34;93.74;100820.52;1699078;84;21305;-76
2021/01/05 00:22:58;;;;;;;53.87;46.42;;;;;;;1.29;93.79;100818.62;1700396;84;21277;-77
2021/01/05 00:26:04;;;;;;;43.08;36.42;;;;;;;1.24;93.85;100808.16;1700385;84;21157;-77
2021/01/05 00:29:10;;;;;;;29.87;26.17;;;;;;;1.23;93.95;100820.41;1700379;84;21266;-76
2021/01/05 00:32:28;;;;;;;53.13;40.83;;;;;;;1.25;93.98;100812.58;1700343;84;21899;-76
2021/01/05 00:35:36;;;;;;;46.75;40.03;;;;;;;1.25;93.83;100813.92;1700344;84;21181;-77
2021/01/05 00:38:41;;;;;;;21.52;15.43;;;;;;;1.22;93.63;100814.61;1700395;84;21261;-77
2021/01/05 00:41:46;;;;;;;29.07;24.45;;;;;;;1.18;93.40;100799.64;1700372;84;21257;-77
2021/01/05 00:44:52;;;;;;;38.48;33.38;;;;;;;1.14;93.31;100798.98;1700369;84;21170;-76
2021/01/05 00:47:57;;;;;;;54.00;45.95;;;;;;;1.14;93.32;100797.63;1700366;84;21139;-76
2021/01/05 00:51:02;;;;;;;20.32;15.68;;;;;;;1.11;93.36;100799.17;1700334;84;21297;-76
2021/01/05 00:54:07;;;;;;;43.68;34.73;;;;;;;1.07;93.37;100794.95;1700391;84;21154;-76
2021/01/05 00:57:18;;;;;;;48.50;36.93;;;;;;;1.03;93.37;100796.13;1700370;84;21698;-76
2021/01/05 01:00:27;;;;;;;52.88;46.95;;;;;;;0.99;93.38;100797.33;1700517;84;21170;-76
2021/01/05 01:03:34;;;;;;;52.13;42.75;;;;;;;0.93;93.37;100792.33;1700339;84;21791;-76
2021/01/05 01:06:39;;;;;;;23.15;16.70;;;;;;;0.88;93.41;100788.60;1700365;84;21193;-76
2021/01/05 01:09:44;;;;;;;42.90;35.85;;;;;;;0.88;93.50;100789.95;1700319;84;21305;-76
2021/01/05 01:12:50;;;;;;;56.55;44.93;;;;;;;0.86;93.51;100796.42;1700379;84;21158;-76
2021/01/05 01:15:56;;;;;;;34.23;27.65;;;;;;;0.84;93.47;100786.22;1701067;82;21733;-76
2021/01/05 01:19:01;;;;;;;39.13;31.02;;;;;;;0.82;93.56;100786.81;1708176;84;21214;-77
2021/01/05 01:22:06;;;;;;;29.82;22.35;;;;;;;0.78;93.52;100785.28;1708116;84;21269;-76
2021/01/05 01:25:12;;;;;;;30.95;23.98;;;;;;;0.74;93.58;100782.78;1708148;84;21276;-76
2021/01/05 01:28:18;;;;;;;34.15;28.07;;;;;;;0.74;93.74;100791.35;1683634;84;21316;-76
2021/01/05 01:31:23;;;;;;;31.68;24.05;;;;;;;0.71;93.75;100784.84;1708075;84;21301;-76
2021/01/05 01:34:29;;;;;;;44.63;37.80;;;;;;;0.71;93.58;100790.23;1708217;84;21335;-76
2021/01/05 01:37:35;;;;;;;25.92;18.45;;;;;;;0.66;93.38;100782.45;1708279;84;21279;-76
2021/01/05 01:40:45;;;;;;;34.20;27.13;;;;;;;0.62;93.20;100774.20;1708270;84;21265;-76
2021/01/05 01:43:53;;;;;;;21.48;15.63;;;;;;;0.59;93.14;100778.42;1708326;84;21162;-76
2021/01/05 01:47:05;;;;;;;34.35;29.23;;;;;;;0.57;93.21;100770.95;1708151;84;21853;-76
2021/01/05 01:50:19;;;;;;;37.42;30.65;;;;;;;0.54;93.21;100769.79;1708274;84;21161;-76
2021/01/05 01:53:51;;;;;;;46.68;36.68;;;;;;;0.52;93.19;100763.66;1708218;84;21189;-76
2021/01/05 01:57:20;;;;;;;34.13;26.70;;;;;;;0.50;93.02;100758.84;1708235;82;21268;-75
2021/01/05 02:00:35;;;;;;;49.03;38.33;;;;;;;0.45;92.86;100752.90;1702112;83;21272;-75
2021/01/05 02:04:08;;;;;;;30.72;22.73;;;;;;;0.41;92.89;100763.48;1708207;84;21867;-76
2021/01/05 02:07:54;;;;;;;33.63;27.65;;;;;;;0.36;92.84;100739.56;1708227;84;21793;-76
2021/01/05 02:11:39;;;;;;;23.00;18.23;;;;;;;0.35;92.79;100741.02;1708244;84;21193;-76
2021/01/05 02:15:23;;;;;;;19.60;14.18;;;;;;;0.32;92.67;100738.52;1691976;84;21154;-76
2021/01/05 02:19:01;;;;;;;44.67;34.40;;;;;;;0.28;92.69;100736.50;1701430;84;21297;-76
2021/01/05 02:22:39;;;;;;;71.28;60.58;;;;;;;0.27;92.86;100735.27;1700336;84;21146;-76
2021/01/05 02:26:10;;;;;;;41.80;33.02;;;;;;;0.26;93.13;100737.09;1700431;84;21159;-76
2021/01/05 02:29:21;;;;;;;61.83;52.08;;;;;;;0.22;93.28;100734.22;1700515;84;21737;-76
2021/01/05 02:32:52;;;;;;;46.28;35.80;;;;;;;0.19;93.34;100727.71;1700219;84;21301;-76
2021/01/05 02:36:28;;;;;;;30.57;23.02;;;;;;;0.14;93.19;100745.95;1700374;84;21337;-76
2021/01/05 02:40:30;;;;;;;64.50;52.50;;;;;;;0.09;93.15;100735.97;1700435;84;21690;-77
2021/01/05 02:44:04;;;;;;;31.12;22.17;;;;;;;0.05;93.05;100733.98;1700422;84;21253;-76
2021/01/05 02:48:03;;;;;;;24.75;19.60;;;;;;;0.01;92.88;100723.03;1700290;84;21194;-76
2021/01/05 02:51:53;;;;;;;48.70;37.28;;;;;;;-0.02;93.01;100715.16;1691509;84;21338;-76
2021/01/05 02:55:44;;;;;;;45.17;34.85;;;;;;;-0.08;92.98;100712.38;1700448;84;21269;-76
2021/01/05 02:59:32;;;;;;;27.70;23.05;;;;;;;-0.10;92.97;100722.84;1700002;84;21345;-76
2021/01/05 03:03:32;;;;;;;38.63;30.37;;;;;;;-0.10;93.06;100718.33;1698450;84;21388;-77
2021/01/05 03:07:03;;;;;;;50.23;37.60;;;;;;;-0.09;93.11;100716.53;1699531;84;22558;-76
2021/01/05 03:10:59;;;;;;;37.23;23.75;;;;;;;-0.10;93.20;100704.02;1700338;84;21170;-76
2021/01/05 03:14:42;;;;;;;109.40;97.25;;;;;;;-0.13;93.34;100702.41;1700390;84;21222;-76
2021/01/05 03:18:09;;;;;;;46.42;39.73;;;;;;;-0.14;93.52;100695.31;1698007;84;21324;-76
2021/01/05 03:21:37;;;;;;;38.85;32.83;;;;;;;-0.13;93.68;100695.69;1700360;84;21138;-76
2021/01/05 03:25:01;;;;;;;61.58;50.63;;;;;;;-0.10;93.68;100695.95;1700527;84;21265;-76
2021/01/05 03:28:28;;;;;;;32.13;25.68;;;;;;;-0.15;93.42;100700.77;1700420;84;21797;-76
2021/01/05 03:31:54;;;;;;;52.98;43.60;;;;;;;-0.19;93.22;100693.85;1700363;84;21820;-76
2021/01/05 03:35:18;;;;;;;47.05;39.25;;;;;;;-0.24;93.26;100690.59;1700370;84;21233;-76
2021/01/05 03:38:41;;;;;;;37.30;29.60;;;;;;;-0.30;93.28;100691.37;1700359;84;21697;-77
2021/01/05 03:42:05;;;;;;;31.20;25.15;;;;;;;-0.33;93.33;100684.87;1700514;84;21257;-76
2021/01/05 03:45:36;;;;;;;37.10;26.85;;;;;;;-0.32;93.38;100689.77;1699084;84;21162;-76
2021/01/05 03:48:47;;;;;;;50.03;41.30;;;;;;;-0.36;93.30;100693.12;1690768;83;21738;-75
2021/01/05 03:52:10;;;;;;;56.37;44.90;;;;;;;-0.40;93.29;100688.89;1700341;84;21357;-77
2021/01/05 03:55:27;;;;;;;49.35;39.48;;;;;;;-0.43;93.37;100689.08;1700316;83;21214;-77
2021/01/05 03:58:49;;;;;;;45.58;35.92;;;;;;;-0.44;93.38;100698.11;1700417;84;21749;-76
2021/01/05 04:02:12;;;;;;;37.78;30.25;;;;;;;-0.46;93.19;100704.07;1700384;84;21728;-76
2021/01/05 04:05:22;;;;;;;35.83;28.80;;;;;;;-0.47;93.18;100729.23;1700372;84;21197;-76
2021/01/05 04:08:28;;;;;;;33.88;28.40;;;;;;;-0.49;93.22;100716.34;1699839;84;21337;-76
2021/01/05 04:11:34;;;;;;;53.00;42.40;;;;;;;-0.51;93.31;100703.50;1699429;84;21242;-76
2021/01/05 04:14:40;;;;;;;43.23;33.78;;;;;;;-0.49;93.43;100712.31;1698098;84;21190;-76
2021/01/05 04:17:46;;;;;;;45.08;37.50;;;;;;;-0.49;93.47;100710.11;1699388;84;21241;-76
2021/01/05 04:20:53;;;;;;;31.93;23.42;;;;;;;-0.49;93.54;100708.28;1698016;84;21190;-76
2021/01/05 04:23:59;;;;;;;29.63;21.10;;;;;;;-0.50;93.62;100706.56;1700391;84;21693;-76
2021/01/05 04:27:04;;;;;;;26.73;20.77;;;;;;;-0.50;93.70;100717.31;1699545;84;21892;-76
2021/01/05 04:30:09;;;;;;;36.70;26.82;;;;;;;-0.50;93.79;100705.22;1699402;84;21887;-76
2021/01/05 04:33:18;;;;;;;46.53;40.28;;;;;;;-0.52;93.68;100720.11;1698580;84;21336;-76
2021/01/05 04:36:24;;;;;;;60.90;48.60;;;;;;;-0.52;93.67;100724.59;1698979;84;21289;-76
2021/01/05 04:39:28;;;;;;;24.95;16.67;;;;;;;-0.51;93.76;100708.88;1700405;84;21257;-76
2021/01/05 04:42:40;;;;;;;34.95;26.40;;;;;;;-0.52;93.80;100706.67;1700276;84;21158;-76
2021/01/05 04:45:57;;;;;;;21.42;16.00;;;;;;;-0.51;93.76;100727.69;1700376;84;21802;-76
2021/01/05 04:49:24;;;;;;;44.75;36.28;;;;;;;-0.54;93.68;100720.66;1700315;84;21185;-76
2021/01/05 04:52:38;;;;;;;67.32;57.90;;;;;;;-0.53;93.49;100721.52;1700336;84;21233;-76
2021/01/05 04:55:52;;;;;;;39.25;31.10;;;;;;;-0.52;93.41;100725.48;1700384;84;21162;-76
2021/01/05 04:59:05;;;;;;;80.05;71.28;;;;;;;-0.49;93.43;100732.95;1700386;84;21796;-76
2021/01/05 05:02:14;;;;;;;43.40;33.63;;;;;;;-0.45;93.44;100743.91;1700310;84;21174;-76
2021/01/05 05:05:27;;;;;;;48.55;38.60;;;;;;;-0.45;93.42;100736.70;1700245;84;21352;-76
2021/01/05 05:09:09;;;;;;;34.95;27.87;;;;;;;-0.45;93.39;100738.05;1699684;84;21816;-77
2021/01/05 05:12:48;;;;;;;45.63;36.95;;;;;;;-0.47;93.25;100746.70;1698187;84;21190;-77
2021/01/05 05:15:57;;;;;;;38.85;28.10;;;;;;;-0.51;93.36;100741.13;1700462;84;21273;-76
2021/01/05 05:19:40;;;;;;;66.77;53.25;;;;;;;-0.53;93.46;100745.71;1700472;84;21262;-76
2021/01/05 05:23:21;;;;;;;23.85;15.48;;;;;;;-0.49;93.57;100753.97;1703422;83;21834;-76
2021/01/05 05:26:40;;;;;;;29.32;20.55;;;;;;;-0.50;93.54;100753.59;1703482;84;21271;-76
2021/01/05 05:30:05;;;;;;;48.17;38.25;;;;;;;-0.54;93.35;100753.39;1703618;84;21841;-76
2021/01/05 05:33:38;;;;;;;26.80;19.67;;;;;;;-0.55;93.28;100747.64;1703422;84;21173;-76
2021/01/05 05:37:18;;;;;;;62.65;47.67;;;;;;;-0.55;93.19;100742.27;1703420;84;21319;-76
2021/01/05 05:40:43;;;;;;;72.50;57.58;;;;;;;-0.50;93.23;100752.73;1703486;84;21263;-77
2021/01/05 05:44:26;;;;;;;51.77;39.65;;;;;;;-0.53;93.13;100730.93;1687672;84;21303;-76
2021/01/05 05:47:36;;;;;;;66.05;54.53;;;;;;;-0.53;93.05;100733.62;1703435;84;21292;-77
2021/01/05 05:51:00;;;;;;;118.42;103.02;;;;;;;-0.52;92.97;100752.36;1727888;83;21355;-76
2021/01/05 05:54:24;;;;;;;62.03;38.50;;;;;;;-0.53;92.98;100739.85;1729960;83;21256;-77
2021/01/05 05:57:49;;;;;;;32.17;24.75;;;;;;;-0.54;93.04;100742.16;1711596;81;21374;-76
2021/01/05 06:00:57;;;;;;;57.35;47.23;;;;;;;-0.51;93.20;100723.66;1721018;81;21198;-80
2021/01/05 06:04:09;;;;;;;84.07;69.03;;;;;;;-0.45;93.25;100739.39;1702192;83;21917;-77
2021/01/05 06:07:16;;;;;;;50.40;39.70;;;;;;;-0.43;93.15;100733.42;1698923;83;21273;-76
2021/01/05 06:10:22;;;;;;;56.02;45.88;;;;;;;-0.44;93.09;100726.33;1722149;81;21281;-77
2021/01/05 06:13:27;;;;;;;53.20;38.38;;;;;;;-0.46;93.08;100708.10;1715650;82;21355;-76
2021/01/05 06:16:32;;;;;;;54.08;43.48;;;;;;;-0.46;93.14;100714.83;1715175;81;21358;-77
2021/01/05 06:19:38;;;;;;;62.05;48.17;;;;;;;-0.48;93.10;100698.39;1722787;82;21351;-77
2021/01/05 06:22:44;;;;;;;40.10;28.50;;;;;;;-0.50;93.06;100699.84;1729012;82;21344;-76
2021/01/05 06:25:50;;;;;;;72.58;58.90;;;;;;;-0.48;93.02;100695.22;1730466;81;21411;-76
2021/01/05 06:28:56;;;;;;;28.77;18.65;;;;;;;-0.46;93.11;100689.78;1731948;82;21317;-77
2021/01/05 06:32:02;;;;;;;62.80;50.28;;;;;;;-0.43;93.15;100686.88;1730111;82;21206;-77
2021/01/05 06:35:08;;;;;;;31.62;23.50;;;;;;;-0.40;93.09;100699.64;1729976;82;21411;-76
2021/01/05 06:38:14;;;;;;;52.45;35.73;;;;;;;-0.39;92.84;100689.75;1713115;83;21305;-76
2021/01/05 06:41:19;;;;;;;33.98;24.45;;;;;;;-0.38;92.72;100689.65;1713782;82;21305;-77
2021/01/05 06:44:24;;;;;;;50.33;41.80;;;;;;;-0.35;92.60;100692.63;1732219;82;21900;-77
2021/01/05 06:47:30;;;;;;;36.75;26.37;;;;;;;-0.32;92.50;100693.80;1736041;82;21301;-77
2021/01/05 06:50:37;;;;;;;62.17;49.75;;;;;;;-0.28;92.61;100685.44;1732375;82;21190;-77
2021/01/05 06:53:43;;;;;;;35.55;25.30;;;;;;;-0.26;92.64;100684.84;1727334;81;21280;-77
2021/01/05 06:57:01;;;;;;;83.33;65.97;;;;;;;-0.22;92.57;100686.86;1719492;81;21875;-76
2021/01/05 07:00:07;;;;;;;49.93;39.15;;;;;;;-0.26;92.33;100692.91;1727963;81;21860;-76
2021/01/05 07:03:13;;;;;;;32.60;21.97;;;;;;;-0.28;92.25;100684.09;1726528;82;21337;-76
2021/01/05 07:06:19;;;;;;;48.30;36.42;;;;;;;-0.27;92.32;100690.33;1723560;81;21408;-77
2021/01/05 07:09:27;;;;;;;44.25;31.33;;;;;;;-0.25;92.33;100687.05;1720618;81;21296;-77
2021/01/05 07:12:36;;;;;;;48.25;39.13;;;;;;;-0.24;92.20;100689.25;1730645;82;22018;-76
2021/01/05 07:15:41;;;;;;;28.85;21.00;;;;;;;-0.22;92.12;100690.90;1731411;82;21222;-77
2021/01/05 07:18:47;;;;;;;55.55;46.30;;;;;;;-0.18;92.15;100684.84;1733833;82;21438;-76
2021/01/05 07:21:53;;;;;;;27.48;21.12;;;;;;;-0.14;92.04;100672.45;1727617;81;21331;-77
2021/01/05 07:24:59;;;;;;;34.13;24.35;;;;;;;-0.08;92.04;100664.47;1689259;83;21824;-77
2021/01/05 07:28:05;;;;;;;48.33;37.20;;;;;;;0.00;91.96;100659.45;1697285;83;22406;-77
2021/01/05 07:31:11;;;;;;;47.17;37.78;;;;;;;0.03;91.73;100661.92;1694014;84;21340;-76
2021/01/05 07:34:18;;;;;;;37.17;29.20;;;;;;;0.06;91.64;100660.87;1693596;83;21300;-75
2021/01/05 07:37:28;;;;;;;58.10;45.25;;;;;;;0.09;91.61;100655.27;1693537;84;21873;-76
2021/01/05 07:40:35;;;;;;;37.95;28.77;;;;;;;0.11;91.34;100658.75;1690800;84;21355;-77
2021/01/05 07:43:41;;;;;;;52.58;40.92;;;;;;;0.15;91.40;100666.52;1695959;84;21323;-76
2021/01/05 07:46:47;;;;;;;57.48;47.10;;;;;;;0.21;91.35;100651.30;1694086;83;21932;-77
2021/01/05 07:49:54;;;;;;;46.15;35.98;;;;;;;0.24;91.03;100650.25;1694227;83;21189;-77
2021/01/05 07:53:00;;;;;;;56.10;41.98;;;;;;;0.28;90.81;100646.84;1695964;84;21307;-77
2021/01/05 07:56:07;;;;;;;55.28;39.70;;;;;;;0.28;90.68;100638.28;1689137;84;21617;-76
2021/01/05 07:59:13;;;;;;;63.58;49.95;;;;;;;0.30;90.60;100631.48;1690219;84;21898;-76
2021/01/05 08:02:20;;;;;;;53.80;43.65;;;;;;;0.29;90.62;100624.38;1690652;84;21854;-76
2021/01/05 08:05:30;;;;;;;51.65;38.83;;;;;;;0.28;90.57;100628.01;1703932;82;21319;-76
2021/01/05 08:08:35;;;;;;;34.27;26.40;;;;;;;0.28;90.69;100638.28;1681246;84;21204;-76
2021/01/05 08:11:45;;;;;;;57.17;45.45;;;;;;;0.36;90.49;100621.64;1683415;84;21556;-77
2021/01/05 08:14:50;;;;;;;29.50;20.82;;;;;;;0.45;90.08;100636.68;1689957;84;21343;-78
2021/01/05 08:17:58;;;;;;;51.53;40.80;;;;;;;0.54;89.65;100640.58;1667345;84;21228;-76
2021/01/05 08:21:04;;;;;;;60.60;47.67;;;;;;;0.57;89.35;100630.97;1697900;83;21359;-76
2021/01/05 08:24:10;;;;;;;71.85;54.80;;;;;;;0.65;89.16;100628.59;1719978;81;21277;-76
2021/01/05 08:27:16;;;;;;;35.88;26.80;;;;;;;0.76;88.96;100626.52;1719940;83;21874;-77
2021/01/05 08:30:27;;;;;;;59.33;50.58;;;;;;;0.84;88.88;100622.79;1737585;82;21853;-77
2021/01/05 08:33:33;;;;;;;38.35;30.10;;;;;;;0.88;88.29;100630.18;1729258;81;21329;-79
2021/01/05 08:36:41;;;;;;;96.30;80.72;;;;;;;0.88;87.51;100605.94;1715624;82;21184;-77
2021/01/05 08:39:47;;;;;;;52.38;40.85;;;;;;;0.92;87.71;100589.95;1732320;81;21358;-77
2021/01/05 08:42:53;;;;;;;46.60;38.95;;;;;;;1.00;87.75;100594.31;1712072;81;21377;-77
2021/01/05 08:45:59;;;;;;;77.60;44.70;;;;;;;1.02;87.73;100588.33;1716875;83;21290;-77
2021/01/05 08:49:06;;;;;;;41.10;32.70;;;;;;;1.01;87.36;100582.56;1726577;83;21165;-77
2021/01/05 08:52:11;;;;;;;62.78;51.98;;;;;;;1.05;87.43;100565.70;1707700;82;21183;-77
2021/01/05 08:55:16;;;;;;;61.02;47.08;;;;;;;1.13;87.42;100564.65;1696007;83;21231;-77
2021/01/05 08:58:22;;;;;;;49.77;39.08;;;;;;;1.18;87.00;100562.52;1717003;82;21310;-77
2021/01/05 09:01:27;;;;;;;41.63;34.65;;;;;;;1.18;86.01;100549.91;1701275;84;21374;-76
2021/01/05 09:04:34;;;;;;;37.73;28.50;;;;;;;1.20;86.24;100565.46;1712827;82;22917;-77
2021/01/05 09:07:39;;;;;;;49.70;36.20;;;;;;;1.24;86.32;100572.36;1732808;81;21885;-76
2021/01/05 09:10:45;;;;;;;43.15;32.42;;;;;;;1.23;86.02;100563.05;1719127;82;21278;-76
2021/01/05 09:13:52;;;;;;;32.67;24.05;;;;;;;1.19;85.90;100577.22;1720752;82;21290;-77
2021/01/05 09:17:11;;;;;;;40.75;31.40;;;;;;;1.22;86.17;100559.49;1723064;81;21957;-76
2021/01/05 09:20:28;;;;;;;60.92;50.28;;;;;;;1.27;86.28;100549.24;1726527;83;21857;-76
2021/01/05 09:23:35;;;;;;;43.90;33.80;;;;;;;1.36;86.37;100540.09;1728365;81;21409;-77
2021/01/05 09:26:43;;;;;;;54.90;38.42;;;;;;;1.43;85.62;100548.12;1731672;81;21295;-76
2021/01/05 09:29:48;;;;;;;41.50;32.80;;;;;;;1.49;85.93;100536.88;1734005;81;21173;-77
2021/01/05 09:32:54;;;;;;;24.67;19.02;;;;;;;1.56;85.80;100528.72;1735319;81;21854;-76
2021/01/05 09:35:59;;;;;;;80.62;64.32;;;;;;;1.64;85.83;100528.99;1734114;82;21294;-76
2021/01/05 09:39:05;;;;;;;35.23;26.40;;;;;;;1.70;85.45;100521.81;1722013;81;21334;-77
2021/01/05 09:42:15;;;;;;;29.92;21.87;;;;;;;1.74;85.69;100534.10;1726912;82;21757;-76
2021/01/05 09:45:20;;;;;;;64.30;50.75;;;;;;;1.75;85.17;100526.38;1723423;82;21235;-77
2021/01/05 09:48:26;;;;;;;28.90;18.60;;;;;;;1.78;85.39;100523.42;1726970;81;21324;-75
2021/01/05 09:51:34;;;;;;;57.08;45.85;;;;;;;1.81;85.42;100522.84;1739889;82;21854;-76
2021/01/05 09:54:47;;;;;;;42.67;34.27;;;;;;;1.89;85.28;100511.00;1704068;82;21218;-76
2021/01/05 09:57:50;;;;;;;44.48;35.23;;;;;;;1.93;84.83;100517.39;1731572;81;21947;-76
2021/01/05 10:00:58;;;;;;;36.73;28.15;;;;;;;1.97;84.57;100502.67;1738757;82;21190;-76
2021/01/05 10:04:03;;;;;;;45.73;34.35;;;;;;;2.01;84.34;100496.55;1724721;82;21302;-77
2021/01/05 10:07:15;;;;;;;52.93;40.20;;;;;;;2.02;83.61;100515.81;1733340;81;21196;-76
2021/01/05 10:10:32;;;;;;;50.00;33.18;;;;;;;1.96;82.41;100498.75;1738493;81;21327;-76
2021/01/05 10:13:37;;;;;;;69.70;59.25;;;;;;;1.92;82.95;100505.34;1709461;82;21282;-76
2021/01/05 10:16:47;;;;;;;43.28;35.13;;;;;;;1.91;83.71;100492.35;1699940;83;21470;-76
2021/01/05 10:20:07;;;;;;;72.17;61.18;;;;;;;1.94;83.63;100472.39;1846457;76;22184;-76
2021/01/05 10:23:13;;;;;;;73.10;59.25;;;;;;;1.93;84.39;100488.18;1819605;77;21302;-76
2021/01/05 10:26:20;;;;;;;42.17;33.67;;;;;;;1.97;84.15;100481.58;1819466;77;21929;-76
2021/01/05 10:29:27;;;;;;;45.73;34.65;;;;;;;1.97;82.88;100478.39;1823534;77;21290;-77
2021/01/05 10:32:32;;;;;;;90.70;75.50;;;;;;;1.97;82.84;100473.48;1821698;77;21275;-77
2021/01/05 10:35:37;;;;;;;24.52;17.35;;;;;;;1.98;83.24;100455.00;1807477;77;21334;-77
2021/01/05 10:38:44;;;;;;;61.58;45.92;;;;;;;2.01;83.73;100452.04;1797333;78;21896;-76
2021/01/05 10:41:52;;;;;;;48.55;33.08;;;;;;;2.03;84.09;100456.84;1794657;79;21287;-77
2021/01/05 10:44:58;;;;;;;35.48;25.00;;;;;;;2.03;83.52;100451.45;1807893;79;21181;-76
2021/01/05 10:48:05;;;;;;;37.00;27.65;;;;;;;2.04;83.45;100436.97;1799486;79;21362;-76
2021/01/05 10:51:12;;;;;;;48.65;36.03;;;;;;;2.03;83.14;100444.22;1787091;79;21185;-76
2021/01/05 10:54:18;;;;;;;53.50;42.93;;;;;;;2.05;83.44;100444.09;1798866;79;21180;-76
2021/01/05 10:57:23;;;;;;;45.70;35.25;;;;;;;2.10;83.50;100437.84;1781425;79;21346;-76
2021/01/05 11:00:30;;;;;;;56.28;38.23;;;;;;;2.08;82.96;100432.21;1735499;82;21845;-76
2021/01/05 11:03:36;;;;;;;22.65;14.90;;;;;;;2.12;83.57;100426.91;1731941;82;21564;-77
2021/01/05 11:06:42;;;;;;;25.43;15.58;;;;;;;2.15;83.87;100430.24;1735620;82;21193;-77
2021/01/05 11:09:47;;;;;;;28.67;22.75;;;;;;;2.19;84.21;100416.03;1730520;82;21332;-77
2021/01/05 11:13:04;;;;;;;75.57;62.05;;;;;;;2.21;83.44;100409.55;1718673;82;21933;-77
2021/01/05 11:16:09;;;;;;;37.85;31.80;;;;;;;2.26;83.61;100417.28;1738762;81;21314;-76
2021/01/05 11:19:15;;;;;;;54.45;42.48;;;;;;;2.27;82.69;100410.41;1734777;81;21882;-77
2021/01/05 11:22:25;;;;;;;39.70;32.00;;;;;;;2.29;83.09;100400.83;1722456;82;22401;-77
2021/01/05 11:25:31;;;;;;;40.78;30.35;;;;;;;2.29;82.47;100399.47;1727165;82;21280;-76
2021/01/05 11:28:38;;;;;;;46.70;35.90;;;;;;;2.30;82.31;100393.95;1739865;82;21339;-77
2021/01/05 11:31:43;;;;;;;60.95;50.28;;;;;;;2.33;82.98;100397.41;1720327;82;21937;-77
2021/01/05 11:34:48;;;;;;;51.90;42.08;;;;;;;2.33;83.46;100404.15;1717278;83;21950;-76
2021/01/05 11:37:53;;;;;;;51.88;45.05;;;;;;;2.29;83.41;100404.38;1706342;82;21373;-77
2021/01/05 11:40:59;;;;;;;62.95;50.25;;;;;;;2.28;83.52;100401.31;1714895;82;21298;-76
2021/01/05 11:44:04;;;;;;;26.45;21.00;;;;;;;2.27;83.38;100409.55;1714174;82;21208;-77
2021/01/05 11:47:10;;;;;;;56.25;45.78;;;;;;;2.26;83.54;100399.24;1707170;82;21304;-77
2021/01/05 11:50:19;;;;;;;33.40;26.68;;;;;;;2.31;83.94;100409.67;1718428;82;21316;-76
2021/01/05 11:53:26;;;;;;;63.35;54.08;;;;;;;2.33;83.48;100392.00;1728280;82;21312;-77
2021/01/05 11:56:34;;;;;;;39.35;29.42;;;;;;;2.35;83.31;100404.88;1721761;82;21890;-77
2021/01/05 11:59:41;;;;;;;37.70;25.10;;;;;;;2.41;83.19;100409.81;1714820;82;21228;-77
2021/01/05 12:02:46;;;;;;;28.20;19.07;;;;;;;2.49;83.69;100410.03;1718866;82;21315;-77
2021/01/05 12:05:52;;;;;;;52.23;44.00;;;;;;;2.55;83.56;100404.16;1717448;82;21256;-77
2021/01/05 12:08:58;;;;;;;24.35;16.70;;;;;;;2.55;82.35;100413.63;1699214;82;21291;-77
2021/01/05 12:12:10;;;;;;;19.80;13.65;;;;;;;2.51;82.65;100408.95;1722029;82;21796;-77
2021/01/05 12:15:15;;;;;;;24.87;18.15;;;;;;;2.53;82.91;100416.91;1718001;82;21240;-76
2021/01/05 12:18:21;;;;;;;36.90;28.70;;;;;;;2.56;83.05;100413.48;1721368;82;21314;-77
2021/01/05 12:21:39;;;;;;;52.08;43.00;;;;;;;2.55;82.85;100424.42;1725446;82;21308;-77
2021/01/05 12:24:45;;;;;;;23.25;14.75;;;;;;;2.53;82.83;100405.62;1727104;82;21181;-77
2021/01/05 12:27:51;;;;;;;74.72;63.60;;;;;;;2.52;83.22;100422.81;1724533;82;21208;-77
2021/01/05 12:30:58;;;;;;;41.80;34.05;;;;;;;2.51;82.75;100424.30;1730663;82;21292;-77
2021/01/05 12:34:04;;;;;;;31.62;21.20;;;;;;;2.51;82.35;100406.25;1728761;82;21314;-76
2021/01/05 12:37:13;;;;;;;31.87;24.35;;;;;;;2.52;82.42;100405.75;1732949;82;21299;-75
2021/01/05 12:40:21;;;;;;;60.00;48.92;;;;;;;2.54;82.63;100401.96;1748545;81;21326;-76
2021/01/05 12:43:27;;;;;;;58.13;47.33;;;;;;;2.54;82.69;100403.77;1733998;81;21296;-76
2021/01/05 12:46:33;;;;;;;46.45;36.17;;;;;;;2.59;83.14;100399.36;1737714;82;21296;-76
2021/01/05 12:49:40;;;;;;;72.80;58.50;;;;;;;2.66;83.50;100399.25;1743087;81;21303;-76
2021/01/05 12:52:48;;;;;;;48.10;35.28;;;;;;;2.71;82.86;100403.78;1752746;81;21811;-76
2021/01/05 12:55:53;;;;;;;23.62;17.95;;;;;;;2.70;81.95;100405.63;1751956;81;21337;-76
2021/01/05 12:58:59;;;;;;;25.97;17.32;;;;;;;2.68;82.01;100408.96;1731845;81;21283;-77
2021/01/05 13:02:08;;;;;;;39.40;32.28;;;;;;;2.63;82.39;100416.54;1749307;81;21296;-75
2021/01/05 13:05:14;;;;;;;32.23;26.40;;;;;;;2.55;82.37;100405.52;1727093;82;21327;-77
2021/01/05 13:08:21;;;;;;;34.38;28.65;;;;;;;2.53;82.89;100396.66;1723868;82;22592;-76
2021/01/05 13:11:28;;;;;;;24.80;15.95;;;;;;;2.52;83.24;100392.25;1775052;81;21489;-76
2021/01/05 13:14:35;;;;;;;42.88;33.63;;;;;;;2.45;82.84;100395.95;1776238;81;21164;-76
2021/01/05 13:17:49;;;;;;;36.25;26.42;;;;;;;2.37;82.79;100386.23;1753935;81;21811;-76
2021/01/05 13:20:54;;;;;;;40.28;29.35;;;;;;;2.30;83.30;100387.20;1744549;82;21237;-76
2021/01/05 13:24:13;;;;;;;45.05;31.82;;;;;;;2.19;83.50;100395.79;1744762;82;21807;-76
2021/01/05 13:27:18;;;;;;;36.35;25.25;;;;;;;2.07;83.46;100392.23;1746491;81;21784;-76
2021/01/05 13:30:24;;;;;;;52.30;43.15;;;;;;;1.94;83.49;100386.06;1712817;84;21185;-76
2021/01/05 13:33:30;;;;;;;77.47;57.73;;;;;;;1.85;83.77;100391.67;1747722;82;21296;-76
2021/01/05 13:36:37;;;;;;;37.25;28.15;;;;;;;1.79;83.98;100390.81;1733159;81;21328;-76
2021/01/05 13:39:43;;;;;;;29.80;18.85;;;;;;;1.73;84.17;100396.66;1710150;82;21306;-76
2021/01/05 13:42:48;;;;;;;57.13;45.28;;;;;;;1.66;84.42;100386.84;1748136;82;21788;-76
2021/01/05 13:45:55;;;;;;;48.17;36.33;;;;;;;1.59;84.73;100388.27;1734328;82;21157;-76
2021/01/05 13:49:02;;;;;;;49.25;40.08;;;;;;;1.52;85.00;100384.34;1737039;82;21283;-76
2021/01/05 13:52:17;;;;;;;33.13;22.77;;;;;;;1.48;85.25;100373.41;1744155;82;21903;-76
2021/01/05 13:55:24;;;;;;;39.13;29.12;;;;;;;1.43;85.38;100383.69;1754528;82;21309;-76
2021/01/05 13:58:29;;;;;;;34.27;25.27;;;;;;;1.39;85.39;100381.70;1753727;82;21817;-77
2021/01/05 14:01:35;;;;;;;71.45;60.78;;;;;;;1.36;85.39;100391.84;1730802;81;21296;-76
2021/01/05 14:04:41;;;;;;;43.25;31.33;;;;;;;1.34;85.44;100392.47;1740292;82;21827;-76
2021/01/05 14:07:47;;;;;;;36.90;25.80;;;;;;;1.32;85.62;100381.81;1743279;82;21284;-76
2021/01/05 14:10:52;;;;;;;27.27;18.05;;;;;;;1.27;85.96;100384.85;1743671;81;21304;-75
2021/01/05 14:13:58;;;;;;;53.33;41.50;;;;;;;1.23;86.25;100376.63;1766230;81;21314;-76
2021/01/05 14:17:05;;;;;;;53.05;38.85;;;;;;;1.20;86.45;100386.27;1775514;81;21169;-76
2021/01/05 14:20:12;;;;;;;82.67;64.42;;;;;;;1.17;86.77;100383.80;1715791;83;21305;-77
2021/01/05 14:23:17;;;;;;;31.37;20.48;;;;;;;1.12;87.10;100383.28;1737126;82;21306;-76
2021/01/05 14:26:24;;;;;;;25.15;13.60;;;;;;;1.07;87.31;100381.91;1722215;83;21142;-76
2021/01/05 14:29:30;;;;;;;23.62;13.22;;;;;;;1.04;87.46;100380.32;1722679;83;21179;-76
2021/01/05 14:32:35;;;;;;;22.48;14.18;;;;;;;1.01;87.58;100384.58;1710571;84;21338;-77
2021/01/05 14:35:41;;;;;;;26.00;17.62;;;;;;;0.99;87.68;100386.05;1715856;83;21194;-78
2021/01/05 14:38:47;;;;;;;38.00;27.85;;;;;;;0.99;87.75;100397.31;1727482;83;21335;-77